Time;durP1;ratioP1;P1;durP2;ratioP2;P2;SDS_P1;SDS_P2;PMS_P1;PMS_P2;Temp;Humidity;BMP_temperature;BMP_pressure;BME280_temperature;BME280_humidity;BME280_pressure;Samples;Min_cycle;Max_cycle;Signal;HPM_P1;HPM_P2
2022/04/04 00:00:55;;;;;;;16.92;6.75;;;3.20;99.90;;;;;;4943414;29;20040;-84
2022/04/04 00:03:21;;;;;;;13.55;6.50;;;3.20;99.90;;;;;;4927652;29;20028;-84
2022/04/04 00:05:48;;;;;;;10.48;6.80;;;3.20;99.90;;;;;;4942803;29;20043;-85
2022/04/04 00:08:14;;;;;;;13.57;6.80;;;3.10;99.90;;;;;;4942075;29;20059;-84
2022/04/04 00:10:40;;;;;;;15.35;7.28;;;3.10;99.90;;;;;;4942783;29;20040;-83
2022/04/04 00:13:06;;;;;;;13.43;7.15;;;3.10;99.90;;;;;;4943042;29;20020;-83
2022/04/04 00:15:32;;;;;;;11.00;7.07;;;3.00;99.90;;;;;;4926390;29;20043;-82
2022/04/04 00:18:08;;;;;;;13.20;7.25;;;3.00;99.90;;;;;;4942370;29;20043;-82
2022/04/04 00:20:34;;;;;;;10.80;6.82;;;3.00;99.90;;;;;;4942438;29;20028;-84
2022/04/04 00:23:00;;;;;;;15.50;7.43;;;3.10;99.90;;;;;;4942777;29;20016;-82
2022/04/04 00:25:26;;;;;;;16.25;7.88;;;3.00;99.90;;;;;;4943181;29;20025;-83
2022/04/04 00:27:52;;;;;;;13.65;7.93;;;3.00;99.90;;;;;;4943147;29;20131;-82
2022/04/04 00:30:18;;;;;;;11.70;7.55;;;3.00;99.90;;;;;;4942320;29;20032;-84
2022/04/04 00:32:44;;;;;;;11.48;7.72;;;3.00;99.90;;;;;;4942570;29;20042;-83
2022/04/04 00:35:10;;;;;;;15.32;8.45;;;2.90;99.90;;;;;;4942604;29;20059;-83
2022/04/04 00:37:38;;;;;;;14.13;8.00;;;2.90;99.90;;;;;;4942942;29;20051;-82
2022/04/04 00:40:05;;;;;;;15.52;8.18;;;2.90;99.90;;;;;;4941802;29;20028;-83
2022/04/04 00:42:32;;;;;;;13.80;7.70;;;2.90;99.90;;;;;;4941447;29;20019;-81
2022/04/04 00:44:58;;;;;;;14.30;8.00;;;2.80;99.90;;;;;;4940551;29;20020;-83
2022/04/04 00:47:23;;;;;;;16.60;8.50;;;2.80;99.90;;;;;;4942757;29;20051;-84
2022/04/04 00:49:49;;;;;;;15.05;9.18;;;2.80;99.90;;;;;;4942563;29;20096;-83
2022/04/04 00:52:16;;;;;;;12.40;7.80;;;2.70;99.90;;;;;;4942740;29;20224;-83
2022/04/04 00:54:42;;;;;;;13.98;8.35;;;2.80;99.90;;;;;;4942483;29;20036;-83
2022/04/04 00:57:09;;;;;;;14.05;8.07;;;2.70;99.90;;;;;;4942474;29;20021;-83
2022/04/04 00:59:36;;;;;;;13.77;8.50;;;2.60;99.90;;;;;;4941153;29;20036;-82
2022/04/04 01:02:02;;;;;;;17.02;8.30;;;2.60;99.90;;;;;;4941488;29;20246;-83
2022/04/04 01:04:28;;;;;;;14.98;8.32;;;2.60;99.90;;;;;;4941669;29;20027;-82
2022/04/04 01:06:54;;;;;;;16.73;8.60;;;2.60;99.90;;;;;;4942183;29;20040;-82
2022/04/04 01:09:20;;;;;;;14.25;7.95;;;2.60;99.90;;;;;;4942388;29;20028;-83
2022/04/04 01:12:10;;;;;;;17.33;9.18;;;2.60;99.90;;;;;;4941802;29;20059;-82
2022/04/04 01:14:46;;;;;;;14.40;8.52;;;2.60;99.90;;;;;;4940122;29;20096;-79
2022/04/04 01:17:13;;;;;;;13.02;8.20;;;2.60;99.90;;;;;;4941454;29;20079;-83
2022/04/04 01:19:39;;;;;;;15.05;8.10;;;2.60;99.90;;;;;;4939967;29;20040;-83
2022/04/04 01:22:07;;;;;;;20.38;8.40;;;2.60;99.90;;;;;;4939303;29;20028;-85
2022/04/04 01:24:36;;;;;;;15.07;8.45;;;2.60;99.90;;;;;;4928944;29;20095;-83
2022/04/04 01:27:04;;;;;;;16.50;9.27;;;2.50;99.90;;;;;;4909181;29;20040;-84
2022/04/04 01:29:30;;;;;;;16.23;8.30;;;2.50;99.90;;;;;;4925734;29;20021;-83
2022/04/04 01:31:56;;;;;;;13.95;8.13;;;2.50;99.90;;;;;;4924205;29;20035;-83
2022/04/04 01:34:22;;;;;;;14.93;9.23;;;2.50;99.90;;;;;;4924303;29;20025;-83
2022/04/04 01:36:52;;;;;;;17.83;10.15;;;2.50;99.90;;;;;;4923215;29;20039;-83
2022/04/04 01:39:18;;;;;;;14.90;8.93;;;2.50;99.90;;;;;;4923525;29;20157;-82
2022/04/04 01:41:45;;;;;;;16.52;9.38;;;2.50;99.90;;;;;;4938445;29;20068;-80
2022/04/04 01:44:11;;;;;;;15.02;8.98;;;2.50;99.90;;;;;;4935281;29;20429;-81
2022/04/04 01:46:37;;;;;;;16.48;9.50;;;2.50;99.90;;;;;;4938640;29;20035;-83
2022/04/04 01:49:05;;;;;;;18.40;9.25;;;2.50;99.90;;;;;;4937161;29;20050;-84
2022/04/04 01:51:34;;;;;;;18.38;9.63;;;2.40;99.90;;;;;;4926222;29;20091;-84
2022/04/04 01:54:00;;;;;;;17.08;9.68;;;2.50;99.90;;;;;;4928490;29;20492;-83
2022/04/04 01:56:27;;;;;;;20.08;9.85;;;2.40;99.90;;;;;;4937917;29;20028;-82
2022/04/04 01:58:53;;;;;;;18.48;10.23;;;2.40;99.90;;;;;;4936856;29;20370;-83
2022/04/04 02:01:22;;;;;;;17.52;10.15;;;2.40;99.90;;;;;;4934553;29;20036;-81
2022/04/04 02:03:53;;;;;;;17.10;9.68;;;2.30;99.90;;;;;;4934111;29;20028;-82
2022/04/04 02:06:19;;;;;;;17.90;10.25;;;2.30;99.90;;;;;;4935898;29;20016;-81
2022/04/04 02:08:45;;;;;;;23.05;10.18;;;2.30;99.90;;;;;;4931265;29;20060;-83
2022/04/04 02:11:12;;;;;;;22.25;11.07;;;2.30;99.90;;;;;;4927985;29;20512;-83
2022/04/04 02:13:39;;;;;;;21.02;9.70;;;2.20;99.90;;;;;;4937189;29;20035;-78
2022/04/04 02:16:05;;;;;;;18.55;10.60;;;2.20;99.90;;;;;;4937526;29;20012;-80
2022/04/04 02:18:33;;;;;;;18.88;10.30;;;2.20;99.90;;;;;;4938557;29;20009;-79
2022/04/04 02:20:59;;;;;;;20.70;10.88;;;2.10;99.90;;;;;;4938411;29;20012;-79
2022/04/04 02:23:25;;;;;;;19.50;10.32;;;2.10;99.90;;;;;;4927342;29;20060;-85
2022/04/04 02:25:55;;;;;;;21.27;10.77;;;2.10;99.90;;;;;;4925896;29;20028;-81
2022/04/04 02:28:22;;;;;;;17.88;9.77;;;2.10;99.90;;;;;;4929241;29;20151;-83
2022/04/04 02:30:49;;;;;;;19.42;10.95;;;2.10;99.90;;;;;;4934542;29;20032;-81
2022/04/04 02:33:16;;;;;;;16.35;9.57;;;2.10;99.90;;;;;;4942281;29;20025;-82
2022/04/04 02:35:44;;;;;;;19.48;10.25;;;2.10;99.90;;;;;;4926701;29;20032;-82
2022/04/04 02:38:11;;;;;;;22.17;10.13;;;2.10;99.90;;;;;;4911020;29;20070;-82
2022/04/04 02:40:38;;;;;;;22.85;10.98;;;2.10;99.90;;;;;;4928952;29;20028;-81
2022/04/04 02:43:05;;;;;;;22.48;11.48;;;2.10;99.90;;;;;;4938428;29;20028;-84
2022/04/04 02:45:32;;;;;;;20.85;10.48;;;2.00;99.90;;;;;;4942542;29;20065;-81
2022/04/04 02:47:58;;;;;;;22.90;10.90;;;2.00;99.90;;;;;;4926091;29;20028;-79
2022/04/04 02:50:24;;;;;;;20.35;11.10;;;2.00;99.90;;;;;;4940860;29;20040;-85
2022/04/04 02:52:50;;;;;;;20.63;11.07;;;1.90;99.90;;;;;;4931990;29;20389;-80
2022/04/04 02:58:00;;;;;;;21.60;11.90;;;1.90;99.90;;;;;;4942567;29;20012;-81
2022/04/04 03:00:26;;;;;;;23.40;11.60;;;1.80;99.90;;;;;;4940463;29;20055;-84
2022/04/04 03:02:56;;;;;;;19.83;11.05;;;1.80;99.90;;;;;;4929746;29;20036;-81
2022/04/04 03:05:23;;;;;;;21.50;11.65;;;1.80;99.90;;;;;;4929252;29;20469;-83
2022/04/04 03:07:50;;;;;;;24.50;11.07;;;1.80;99.90;;;;;;4930966;29;20133;-82
2022/04/04 03:10:16;;;;;;;26.38;11.52;;;1.80;99.90;;;;;;4929191;29;20058;-84
2022/04/04 03:12:42;;;;;;;22.48;11.57;;;1.80;99.90;;;;;;4937498;29;20048;-79
2022/04/04 03:15:11;;;;;;;21.00;10.63;;;1.70;99.90;;;;;;4925490;29;20049;-79
2022/04/04 03:17:39;;;;;;;23.05;11.50;;;1.70;99.90;;;;;;4941140;29;20020;-81
2022/04/04 03:20:09;;;;;;;20.77;10.85;;;1.80;99.90;;;;;;4937593;29;20040;-84
2022/04/04 03:22:41;;;;;;;17.27;9.68;;;1.80;99.90;;;;;;4929881;29;20036;-84
2022/04/04 03:25:08;;;;;;;20.60;9.57;;;1.70;99.90;;;;;;4938920;29;20056;-83
2022/04/04 03:27:36;;;;;;;20.52;10.40;;;1.70;99.90;;;;;;4937454;29;20110;-82
2022/04/04 03:30:06;;;;;;;20.15;10.02;;;1.70;99.90;;;;;;4937785;29;20028;-81
2022/04/04 03:32:32;;;;;;;19.83;10.63;;;1.70;99.90;;;;;;4930567;29;20485;-82
2022/04/04 03:34:58;;;;;;;18.83;9.68;;;1.70;99.90;;;;;;4931940;29;20020;-83
2022/04/04 03:37:24;;;;;;;17.30;9.60;;;1.70;99.90;;;;;;4937430;29;20096;-81
2022/04/04 03:39:51;;;;;;;21.38;10.55;;;1.60;99.90;;;;;;4939867;29;20112;-81
2022/04/04 03:42:17;;;;;;;19.08;10.57;;;1.70;99.90;;;;;;4939659;29;20060;-84
2022/04/04 03:44:42;;;;;;;15.80;9.57;;;1.60;99.90;;;;;;4938770;29;20072;-80
2022/04/04 03:47:10;;;;;;;19.23;10.23;;;1.60;99.90;;;;;;4940466;29;20042;-82
2022/04/04 03:49:37;;;;;;;20.30;10.02;;;1.60;99.90;;;;;;4941565;29;20048;-81
2022/04/04 03:52:04;;;;;;;20.85;11.10;;;1.60;99.90;;;;;;4942347;29;20165;-79
2022/04/04 03:54:30;;;;;;;19.92;9.75;;;1.60;99.90;;;;;;4942120;29;20046;-81
2022/04/04 03:56:57;;;;;;;17.50;9.75;;;1.60;99.90;;;;;;4942757;29;20072;-79
2022/04/04 03:59:23;;;;;;;20.00;10.88;;;1.60;99.90;;;;;;4942586;29;20008;-79
2022/04/04 04:01:49;;;;;;;20.95;9.70;;;1.60;99.90;;;;;;4942315;29;20032;-82
2022/04/04 04:04:15;;;;;;;21.88;10.77;;;1.50;99.90;;;;;;4941473;29;20088;-78
2022/04/04 04:06:41;;;;;;;17.20;9.68;;;1.50;99.90;;;;;;4938542;29;20035;-83
2022/04/04 04:09:07;;;;;;;20.73;9.57;;;1.50;99.90;;;;;;4933342;29;20012;-84
2022/04/04 04:11:32;;;;;;;16.63;8.98;;;1.50;99.90;;;;;;4955910;23;20045;-86
2022/04/04 04:14:00;;;;;;;21.55;9.23;;;1.50;99.90;;;;;;4919097;29;20029;-87
2022/04/04 04:16:26;;;;;;;21.33;9.85;;;1.50;99.90;;;;;;4920142;29;20096;-87
2022/04/04 04:18:52;;;;;;;18.80;9.85;;;1.50;99.90;;;;;;4917799;29;20048;-87
2022/04/04 04:21:19;;;;;;;17.42;9.80;;;1.50;99.90;;;;;;4916660;29;20041;-88
2022/04/04 04:23:47;;;;;;;17.45;8.95;;;1.50;99.90;;;;;;4917660;29;20412;-87
2022/04/04 04:26:14;;;;;;;17.98;10.13;;;1.50;99.90;;;;;;4917980;29;20060;-87
2022/04/04 04:28:45;;;;;;;19.33;9.93;;;1.40;99.90;;;;;;4916408;29;20358;-86
2022/04/04 04:31:11;;;;;;;17.42;9.85;;;1.50;99.90;;;;;;4916952;29;20028;-87
2022/04/04 04:33:37;;;;;;;20.65;9.18;;;1.50;99.90;;;;;;4923060;29;20037;-87
2022/04/04 04:36:03;;;;;;;21.05;9.30;;;1.50;99.90;;;;;;4917653;29;20678;-87
2022/04/04 04:38:30;;;;;;;17.83;9.38;;;1.50;99.90;;;;;;4916742;29;20032;-87
2022/04/04 04:40:56;;;;;;;18.65;9.02;;;1.50;99.90;;;;;;4918592;29;20033;-87
2022/04/04 04:43:22;;;;;;;16.67;9.10;;;1.50;99.90;;;;;;4921138;29;20015;-87
2022/04/04 04:45:48;;;;;;;16.17;9.52;;;1.60;99.90;;;;;;4921486;29;20025;-88
2022/04/04 04:48:14;;;;;;;17.67;8.95;;;1.60;99.90;;;;;;4920069;29;20033;-87
2022/04/04 04:50:40;;;;;;;18.25;8.75;;;1.60;99.90;;;;;;4921769;29;20060;-85
2022/04/04 04:53:06;;;;;;;16.25;9.43;;;1.70;99.90;;;;;;4918941;29;20043;-88
2022/04/04 04:55:32;;;;;;;18.38;8.80;;;1.70;99.90;;;;;;4918838;29;20071;-86
2022/04/04 04:57:58;;;;;;;14.90;8.30;;;1.70;99.90;;;;;;4921969;29;20059;-88
2022/04/04 05:00:27;;;;;;;15.88;8.00;;;1.70;99.90;;;;;;4920728;29;20036;-89
2022/04/04 05:05:39;;;;;;;17.55;8.75;;;1.90;99.90;;;;;;4922328;29;20092;-88
2022/04/04 05:08:05;;;;;;;19.80;9.27;;;1.90;99.90;;;;;;4923026;29;20115;-89
2022/04/04 05:10:33;;;;;;;20.67;9.35;;;2.00;99.90;;;;;;4922452;29;20052;-89
2022/04/04 05:12:59;;;;;;;18.42;8.52;;;2.00;99.90;;;;;;4922399;29;20025;-87
2022/04/04 05:15:25;;;;;;;17.88;8.80;;;2.00;99.90;;;;;;4921982;29;20025;-88
2022/04/04 05:17:52;;;;;;;17.85;8.65;;;2.10;99.90;;;;;;4923016;29;20019;-88
2022/04/04 05:20:21;;;;;;;20.52;9.32;;;2.20;99.90;;;;;;4922056;29;20161;-88
2022/04/04 05:22:47;;;;;;;26.98;12.77;;;2.20;99.90;;;;;;4915964;29;20032;-87
2022/04/04 05:25:14;;;;;;;16.67;8.35;;;2.20;99.90;;;;;;4926592;29;20108;-88
2022/04/04 05:27:41;;;;;;;17.27;8.48;;;2.30;99.90;;;;;;4940241;29;20020;-89
2022/04/04 05:30:08;;;;;;;17.83;9.10;;;2.40;99.90;;;;;;4933761;29;20021;-88
2022/04/04 05:32:34;;;;;;;14.05;8.50;;;2.50;99.90;;;;;;4922350;29;20025;-89
2022/04/04 05:35:06;;;;;;;15.02;8.00;;;2.60;99.90;;;;;;4921820;29;20029;-87
2022/04/04 05:37:32;;;;;;;14.05;7.80;;;2.70;99.90;;;;;;4918325;29;20056;-89
2022/04/04 05:39:58;;;;;;;19.27;8.20;;;2.70;99.90;;;;;;4915112;29;20025;-89
2022/04/04 05:42:24;;;;;;;13.48;8.40;;;2.80;99.90;;;;;;4914062;29;20404;-88
2022/04/04 05:44:50;;;;;;;13.27;7.88;;;2.90;99.90;;;;;;4912748;29;20041;-87
2022/04/04 05:47:19;;;;;;;16.63;8.85;;;3.00;99.90;;;;;;4920891;29;20044;-88
2022/04/04 05:49:46;;;;;;;17.58;8.55;;;2.90;99.90;;;;;;4915261;29;20046;-88
2022/04/04 05:52:12;;;;;;;14.00;8.13;;;3.00;99.90;;;;;;4914076;29;20044;-87
2022/04/04 05:54:53;;;;;;;12.55;8.18;;;3.00;99.90;;;;;;4909990;29;20441;-86
2022/04/04 05:57:23;;;;;;;22.88;10.85;;;3.10;99.90;;;;;;4910788;29;20035;-85
2022/04/04 05:59:49;;;;;;;14.73;8.18;;;3.10;99.90;;;;;;4914611;29;20025;-87
2022/04/04 06:02:15;;;;;;;14.68;8.40;;;3.10;99.90;;;;;;4940648;29;20052;-86
2022/04/04 06:04:41;;;;;;;15.88;8.07;;;3.10;99.90;;;;;;4935459;29;20059;-87
2022/04/04 06:07:07;;;;;;;14.70;7.63;;;3.20;99.90;;;;;;4930679;29;20029;-86
2022/04/04 06:09:33;;;;;;;14.32;8.10;;;3.20;99.90;;;;;;4926769;29;20040;-86
2022/04/04 06:11:59;;;;;;;15.40;7.95;;;3.20;99.90;;;;;;4934583;29;20088;-86
2022/04/04 06:14:25;;;;;;;16.80;7.25;;;3.30;99.90;;;;;;4930934;29;20028;-88
2022/04/04 06:16:51;;;;;;;18.10;7.93;;;3.30;99.90;;;;;;4927703;29;20046;-87
2022/04/04 06:19:17;;;;;;;14.52;7.88;;;3.40;99.90;;;;;;4937303;29;20016;-88
2022/04/04 06:21:42;;;;;;;15.20;7.82;;;3.50;99.90;;;;;;4920813;29;20032;-89
2022/04/04 06:24:08;;;;;;;15.50;7.57;;;3.50;99.90;;;;;;4920619;29;20039;-89
2022/04/04 06:26:34;;;;;;;13.50;7.45;;;3.60;99.90;;;;;;4904740;29;20088;-88
2022/04/04 06:29:00;;;;;;;13.30;7.82;;;3.70;99.90;;;;;;4928616;29;20024;-88
2022/04/04 06:31:26;;;;;;;15.30;8.18;;;3.80;99.90;;;;;;4921513;29;20092;-86
2022/04/04 06:33:51;;;;;;;13.13;7.28;;;3.90;99.90;;;;;;4922215;29;20023;-90
2022/04/04 06:36:17;;;;;;;17.33;7.22;;;4.00;99.90;;;;;;4905885;29;20045;-87
2022/04/04 06:38:43;;;;;;;21.85;11.07;;;4.10;99.90;;;;;;4921579;29;20037;-89
2022/04/04 06:41:11;;;;;;;15.82;8.32;;;4.00;99.90;;;;;;4920803;29;20044;-89
2022/04/04 06:43:42;;;;;;;13.57;7.70;;;4.00;99.90;;;;;;4906209;29;20037;-87
2022/04/04 06:46:08;;;;;;;14.57;7.47;;;4.10;99.90;;;;;;4925519;29;20088;-87
2022/04/04 06:48:34;;;;;;;17.80;8.05;;;4.20;99.90;;;;;;4922023;29;20044;-88
2022/04/04 06:51:01;;;;;;;15.63;7.32;;;4.30;99.90;;;;;;4939418;29;20036;-89
2022/04/04 06:53:26;;;;;;;12.50;7.35;;;4.40;99.90;;;;;;4940335;29;20080;-87
2022/04/04 06:55:52;;;;;;;12.95;6.00;;;4.40;99.90;;;;;;4935500;29;20040;-87
2022/04/04 06:58:20;;;;;;;10.32;6.30;;;4.50;99.90;;;;;;4917555;29;20031;-88
2022/04/04 07:00:46;;;;;;;14.63;7.90;;;4.70;99.90;;;;;;4920120;29;20028;-87
2022/04/04 07:03:15;;;;;;;11.13;6.53;;;4.70;99.90;;;;;;4923342;29;20037;-88
2022/04/04 07:05:41;;;;;;;14.20;6.50;;;4.90;99.90;;;;;;4920589;29;20032;-87
2022/04/04 07:08:12;;;;;;;14.25;6.63;;;4.90;99.90;;;;;;4935154;29;20082;-87
2022/04/04 07:10:38;;;;;;;9.82;5.50;;;5.10;99.90;;;;;;4932333;29;20045;-86
2022/04/04 07:13:07;;;;;;;10.00;6.07;;;5.20;99.60;;;;;;4934417;23;20036;-87
2022/04/04 07:15:33;;;;;;;11.77;6.80;;;4.90;99.90;;;;;;4925489;29;20029;-87
2022/04/04 07:17:59;;;;;;;18.90;6.80;;;4.70;99.90;;;;;;4922828;29;20017;-89
2022/04/04 07:20:25;;;;;;;13.15;6.68;;;4.60;99.90;;;;;;4906157;29;20021;-88
2022/04/04 07:22:51;;;;;;;13.70;6.07;;;4.40;99.80;;;;;;4906046;29;20045;-88
2022/04/04 07:25:17;;;;;;;13.77;6.05;;;4.30;99.60;;;;;;4905754;29;20036;-88
2022/04/04 07:27:46;;;;;;;13.23;6.57;;;4.30;99.70;;;;;;4905668;29;20029;-88
2022/04/04 07:30:14;;;;;;;10.90;6.05;;;4.40;99.70;;;;;;5036490;23;20060;-89
2022/04/04 07:32:42;;;;;;;41.58;15.98;;;4.40;99.20;;;;;;4881312;29;20045;-87
2022/04/04 07:35:11;;;;;;;17.50;8.77;;;4.40;99.10;;;;;;4898146;29;20040;-87
2022/04/04 07:37:37;;;;;;;9.73;5.75;;;4.40;98.60;;;;;;4901855;29;20014;-90
2022/04/04 07:40:05;;;;;;;10.27;5.78;;;4.50;98.30;;;;;;4886849;29;20109;-89
2022/04/04 07:42:30;;;;;;;12.70;5.28;;;4.50;97.70;;;;;;4886412;29;20038;-89
2022/04/04 07:44:57;;;;;;;13.13;5.93;;;4.70;97.80;;;;;;4900109;29;20143;-88
2022/04/04 07:47:23;;;;;;;10.40;5.45;;;4.70;97.30;;;;;;4900643;29;20061;-88
2022/04/04 07:49:49;;;;;;;9.98;4.68;;;4.90;96.50;;;;;;4897400;29;20028;-90
2022/04/04 07:52:16;;;;;;;10.80;4.95;;;4.90;95.50;;;;;;4894134;29;20085;-89
2022/04/04 07:54:42;;;;;;;9.02;4.60;;;4.90;95.60;;;;;;4886714;29;20041;-89
2022/04/04 07:57:08;;;;;;;7.50;4.50;;;5.00;95.10;;;;;;4881242;29;20049;-90
2022/04/04 07:59:34;;;;;;;13.50;5.18;;;5.20;94.70;;;;;;4902426;29;20029;-90
2022/04/04 08:02:00;;;;;;;7.63;4.22;;;5.40;94.00;;;;;;4888879;29;20040;-90
2022/04/04 08:04:26;;;;;;;10.45;4.85;;;5.50;93.90;;;;;;4891917;29;20053;-89
2022/04/04 08:06:52;;;;;;;10.00;4.35;;;5.70;93.40;;;;;;4881902;29;20028;-89
2022/04/04 08:09:18;;;;;;;8.93;4.65;;;5.90;92.80;;;;;;4882908;29;20642;-90
2022/04/04 08:11:45;;;;;;;7.85;4.72;;;6.20;92.30;;;;;;4883329;29;20032;-90
2022/04/04 08:14:11;;;;;;;6.05;4.22;;;6.30;92.20;;;;;;4884944;29;20044;-89
2022/04/04 08:16:37;;;;;;;12.25;4.20;;;5.80;90.80;;;;;;4891784;29;20040;-88
2022/04/04 08:19:03;;;;;;;9.45;4.55;;;5.50;91.20;;;;;;4879297;29;20033;-89
2022/04/04 08:21:34;;;;;;;8.27;4.53;;;5.20;91.10;;;;;;4893268;29;20041;-89
2022/04/04 08:24:00;;;;;;;8.05;4.20;;;5.20;91.20;;;;;;4883850;29;20129;-91
2022/04/04 08:26:29;;;;;;;11.27;5.72;;;5.30;90.70;;;;;;4879554;29;20040;-89
2022/04/04 08:28:55;;;;;;;10.52;5.43;;;5.30;90.10;;;;;;4884599;29;20147;-89
2022/04/04 08:31:20;;;;;;;11.95;4.93;;;5.40;90.90;;;;;;4886158;29;20050;-91
2022/04/04 08:33:46;;;;;;;7.80;4.45;;;5.40;91.50;;;;;;4884639;29;20025;-89
2022/04/04 08:36:12;;;;;;;8.05;4.60;;;5.30;90.80;;;;;;4889694;29;20036;-90
2022/04/04 08:38:43;;;;;;;7.47;4.97;;;5.20;89.90;;;;;;4892756;29;20081;-90
2022/04/04 08:41:12;;;;;;;7.27;4.00;;;5.30;90.10;;;;;;4896349;29;20043;-86
2022/04/04 08:43:49;;;;;;;8.27;4.53;;;5.30;89.30;;;;;;4891942;29;20040;-87
2022/04/04 08:46:16;;;;;;;7.15;4.43;;;5.10;89.80;;;;;;4892316;29;20025;-88
2022/04/04 08:48:42;;;;;;;4.88;3.70;;;5.10;90.70;;;;;;4891901;29;20085;-87
2022/04/04 08:51:09;;;;;;;8.50;4.43;;;5.20;90.80;;;;;;4885006;29;20021;-89
2022/04/04 08:53:36;;;;;;;8.02;3.92;;;5.20;90.50;;;;;;4891269;29;20121;-89
2022/04/04 08:56:04;;;;;;;6.95;4.53;;;5.50;90.10;;;;;;4891740;29;20041;-90
2022/04/04 08:58:31;;;;;;;9.93;4.03;;;5.60;89.10;;;;;;4879524;29;20061;-89
2022/04/04 09:00:58;;;;;;;6.97;4.78;;;5.60;88.80;;;;;;4877193;29;20044;-87
2022/04/04 09:03:32;;;;;;;8.65;4.57;;;5.50;88.80;;;;;;4889222;29;20017;-88
2022/04/04 09:06:05;;;;;;;6.28;3.97;;;5.50;88.60;;;;;;4900543;29;20041;-87
2022/04/04 09:08:44;;;;;;;8.25;4.57;;;5.80;88.20;;;;;;4890954;29;20033;-88
2022/04/04 09:11:10;;;;;;;7.00;4.07;;;6.10;86.70;;;;;;4895303;29;20129;-88
2022/04/04 09:13:37;;;;;;;7.43;4.20;;;6.20;84.70;;;;;;4892868;29;20100;-89
2022/04/04 09:16:04;;;;;;;10.35;4.95;;;6.40;84.70;;;;;;4901936;29;20037;-90
2022/04/04 09:18:39;;;;;;;10.73;4.07;;;6.50;83.50;;;;;;4880886;29;20034;-86
2022/04/04 09:21:25;;;;;;;7.82;4.55;;;6.80;84.30;;;;;;4887375;29;20074;-89
2022/04/04 09:23:54;;;;;;;12.48;4.72;;;7.00;84.00;;;;;;4888340;29;20100;-87
2022/04/04 09:26:29;;;;;;;7.60;3.78;;;7.30;83.00;;;;;;4886990;29;20024;-88
2022/04/04 09:29:08;;;;;;;5.43;3.80;;;8.10;80.50;;;;;;4878861;29;20033;-89
2022/04/04 09:31:36;;;;;;;6.15;3.83;;;9.50;77.20;;;;;;4873087;29;20402;-89
2022/04/04 09:34:04;;;;;;;6.60;3.97;;;10.40;73.30;;;;;;4877934;29;20112;-89
2022/04/04 09:36:31;;;;;;;6.70;4.15;;;10.80;72.40;;;;;;4870264;29;20029;-88
2022/04/04 09:39:05;;;;;;;5.68;3.85;;;13.00;68.40;;;;;;4885945;29;20033;-89
2022/04/04 09:41:32;;;;;;;6.25;4.20;;;14.90;61.70;;;;;;4896772;29;20044;-89
2022/04/04 09:44:03;;;;;;;8.98;4.50;;;15.10;57.50;;;;;;4901010;29;20028;-89
2022/04/04 09:46:42;;;;;;;6.32;4.20;;;13.80;58.40;;;;;;4909957;29;20033;-89
2022/04/04 09:49:20;;;;;;;11.90;4.43;;;14.00;59.50;;;;;;4881038;29;20114;-87
2022/04/04 09:51:50;;;;;;;5.63;4.07;;;14.70;56.80;;;;;;4883731;29;20061;-88
2022/04/04 09:54:28;;;;;;;6.70;4.00;;;15.80;55.00;;;;;;4904679;29;20512;-88
2022/04/04 09:57:14;;;;;;;4.38;3.83;;;17.20;54.10;;;;;;4880402;29;20111;-88
2022/04/04 09:59:41;;;;;;;6.57;3.97;;;19.30;50.50;;;;;;4886356;29;20018;-89
2022/04/04 10:02:09;;;;;;;6.20;4.38;;;15.30;51.20;;;;;;4879733;29;20025;-90
2022/04/04 10:04:35;;;;;;;5.00;3.92;;;15.80;52.70;;;;;;4882146;29;20053;-89
2022/04/04 10:07:06;;;;;;;5.72;4.10;;;16.20;52.30;;;;;;4878926;29;20038;-88
2022/04/04 10:09:33;;;;;;;5.68;4.18;;;15.50;53.20;;;;;;4873972;29;20112;-89
2022/04/04 10:11:59;;;;;;;4.85;4.15;;;16.40;52.60;;;;;;4956840;23;20050;-82
2022/04/04 10:14:26;;;;;;;5.70;4.10;;;18.10;51.40;;;;;;4956523;28;20096;-83
2022/04/04 10:16:53;;;;;;;9.13;4.47;;;15.60;52.30;;;;;;4951448;29;20039;-81
2022/04/04 10:19:20;;;;;;;5.68;4.03;;;14.20;54.50;;;;;;4959301;29;20031;-83
2022/04/04 10:21:49;;;;;;;5.53;3.97;;;15.70;52.60;;;;;;4948995;28;20024;-84
2022/04/04 10:24:15;;;;;;;4.57;3.50;;;18.00;50.30;;;;;;4934678;29;20052;-84
2022/04/04 10:26:44;;;;;;;13.13;7.68;;;19.70;48.50;;;;;;4931183;29;20031;-86
2022/04/04 10:29:12;;;;;;;5.93;3.92;;;18.70;48.60;;;;;;4933696;29;20036;-85
2022/04/04 10:32:05;;;;;;;9.63;3.97;;;16.70;50.60;;;;;;4934580;29;20024;-82
2022/04/04 10:34:40;;;;;;;7.25;4.38;;;16.00;51.20;;;;;;4943810;29;20031;-82
2022/04/04 10:37:09;;;;;;;9.98;4.43;;;14.80;52.10;;;;;;4934538;29;20075;-83
2022/04/04 10:39:47;;;;;;;7.53;3.80;;;14.90;52.20;;;;;;4936034;29;20028;-86
2022/04/04 10:42:27;;;;;;;4.65;3.60;;;16.40;51.30;;;;;;4937359;29;20033;-84
2022/04/04 10:45:05;;;;;;;9.27;3.85;;;17.70;50.10;;;;;;4922007;29;20048;-85
2022/04/04 10:47:31;;;;;;;6.28;4.20;;;19.40;48.20;;;;;;4939837;29;20039;-85
2022/04/04 10:50:18;;;;;;;5.32;4.30;;;18.70;47.50;;;;;;4944247;29;20059;-84
2022/04/04 10:52:44;;;;;;;7.25;4.60;;;15.50;49.50;;;;;;4939516;29;20028;-84
2022/04/04 10:55:29;;;;;;;4.70;3.83;;;13.20;53.10;;;;;;4941266;29;20100;-83
2022/04/04 10:57:59;;;;;;;8.35;5.20;;;12.80;53.40;;;;;;4938118;29;20032;-84
2022/04/04 11:00:34;;;;;;;7.13;4.20;;;12.20;54.30;;;;;;4936118;29;20065;-85
2022/04/04 11:03:04;;;;;;;12.20;4.20;;;12.40;54.30;;;;;;4941919;29;20035;-84
2022/04/04 11:08:34;;;;;;;4.93;3.78;;;13.60;53.60;;;;;;4937867;29;20452;-85
2022/04/04 11:11:01;;;;;;;8.98;4.50;;;11.70;55.00;;;;;;4939416;29;20443;-85
2022/04/04 11:13:27;;;;;;;5.47;3.95;;;12.00;55.40;;;;;;4943041;29;20027;-85
2022/04/04 11:15:54;;;;;;;4.82;3.60;;;12.80;54.50;;;;;;4926320;29;20487;-84
2022/04/04 11:18:20;;;;;;;5.10;3.92;;;14.80;52.70;;;;;;4949336;29;20036;-83
2022/04/04 11:20:59;;;;;;;6.93;4.40;;;17.40;50.20;;;;;;4941054;29;20024;-86
2022/04/04 11:23:34;;;;;;;5.53;4.00;;;19.10;48.50;;;;;;4933586;29;20137;-87
2022/04/04 11:26:03;;;;;;;4.80;3.42;;;19.40;46.50;;;;;;4930418;29;20039;-85
2022/04/04 11:28:35;;;;;;;8.63;3.50;;;18.50;47.20;;;;;;4929906;29;20031;-84
2022/04/04 11:31:10;;;;;;;12.25;4.13;;;17.50;47.50;;;;;;4926546;29;20473;-85
2022/04/04 11:33:51;;;;;;;5.22;4.00;;;15.20;49.40;;;;;;4925902;29;20396;-84
2022/04/04 11:36:30;;;;;;;7.32;4.13;;;14.80;49.80;;;;;;4928854;29;20035;-84
2022/04/04 11:39:03;;;;;;;7.07;3.88;;;12.90;52.70;;;;;;4927858;29;20091;-84
2022/04/04 11:41:36;;;;;;;7.32;3.63;;;12.60;53.80;;;;;;4925806;29;20091;-85
2022/04/04 11:44:02;;;;;;;7.22;4.25;;;12.00;54.30;;;;;;4927110;29;20050;-84
2022/04/04 11:46:28;;;;;;;8.30;4.30;;;12.60;54.90;;;;;;4927551;29;20083;-84
2022/04/04 11:48:55;;;;;;;7.75;3.75;;;14.40;52.70;;;;;;4930782;29;20032;-85
2022/04/04 11:51:41;;;;;;;6.32;3.60;;;16.10;50.50;;;;;;4931096;29;20028;-84
2022/04/04 11:54:11;;;;;;;;;;;16.70;50.00;;;;;;4930579;29;20092;-85
2022/04/04 11:56:37;;;;;;;7.43;3.92;;;18.50;47.70;;;;;;4923361;29;19918;-84
2022/04/04 11:59:08;;;;;;;7.03;3.95;;;18.90;46.90;;;;;;4920073;29;20123;-85
2022/04/04 12:01:34;;;;;;;5.70;3.92;;;17.10;48.10;;;;;;4930104;29;20137;-85
2022/04/04 12:04:03;;;;;;;8.00;3.70;;;15.30;50.00;;;;;;4908988;29;20028;-86
2022/04/04 12:06:30;;;;;;;6.78;3.50;;;15.40;50.50;;;;;;4936295;29;20103;-86
2022/04/04 12:09:00;;;;;;;5.53;3.75;;;15.60;50.90;;;;;;4928763;29;20043;-86
2022/04/04 12:11:29;;;;;;;11.98;6.38;;;16.20;50.00;;;;;;4940738;29;20032;-84
2022/04/04 12:14:00;;;;;;;7.50;4.30;;;17.10;49.10;;;;;;4943961;29;20026;-85
2022/04/04 12:16:27;;;;;;;6.82;3.60;;;15.80;49.20;;;;;;4936425;29;20086;-85
2022/04/04 12:19:00;;;;;;;5.13;3.67;;;14.20;50.80;;;;;;4941755;29;20035;-87
2022/04/04 12:21:28;;;;;;;6.90;4.30;;;13.50;52.40;;;;;;4939254;29;20046;-85
2022/04/04 12:26:38;;;;;;;5.05;3.67;;;14.70;51.50;;;;;;4940548;29;20040;-84
2022/04/04 12:29:12;;;;;;;7.97;3.67;;;15.00;51.10;;;;;;4936904;29;20038;-86
2022/04/04 12:31:38;;;;;;;7.90;3.58;;;15.60;50.60;;;;;;4940409;29;20035;-85
2022/04/04 12:34:10;;;;;;;6.35;4.28;;;17.00;49.90;;;;;;4934177;29;20027;-85
2022/04/04 12:36:38;;;;;;;5.88;3.33;;;18.70;46.40;;;;;;4923774;29;20444;-84
2022/04/04 12:39:05;;;;;;;5.30;2.95;;;18.20;46.80;;;;;;4924596;29;20096;-88
2022/04/04 12:41:45;;;;;;;9.90;3.65;;;17.70;47.40;;;;;;4927925;29;20036;-88
2022/04/04 12:44:12;;;;;;;6.45;3.50;;;16.50;48.60;;;;;;4926265;29;20414;-84
2022/04/04 12:46:38;;;;;;;4.93;3.42;;;16.30;49.60;;;;;;4901906;29;20039;-87
2022/04/04 12:49:19;;;;;;;7.55;3.13;;;17.10;49.20;;;;;;4927584;29;20149;-87
2022/04/04 12:51:58;;;;;;;5.85;3.45;;;19.90;47.40;;;;;;4932540;29;20236;-85
2022/04/04 12:54:31;;;;;;;10.43;3.20;;;22.20;45.30;;;;;;4934749;29;20090;-86
2022/04/04 12:57:00;;;;;;;5.45;2.92;;;23.80;43.90;;;;;;4925837;29;20095;-86
2022/04/04 12:59:26;;;;;;;3.80;2.97;;;24.30;42.60;;;;;;4912469;29;20052;-87
2022/04/04 13:02:09;;;;;;;4.97;3.65;;;23.90;41.80;;;;;;4930807;29;20039;-88